createdAt,value
2019-05-26T00:03:57.405Z,95422.67
2019-05-26T00:09:15.716Z,95420.50
2019-05-26T00:11:47.379Z,95416.98
2019-05-26T00:16:52.076Z,95407.31
2019-05-26T00:19:20.452Z,95409.06
2019-05-26T00:21:51.837Z,95405.70
2019-05-26T00:24:20.231Z,95411.95
2019-05-26T00:29:24.872Z,95406.44
2019-05-26T00:31:53.265Z,95402.38
2019-05-26T00:34:40.742Z,95393.84
2019-05-26T00:37:09.174Z,95397.90
2019-05-26T00:39:47.674Z,95392.95
2019-05-26T00:42:24.228Z,95390.63
2019-05-26T00:44:52.629Z,95391.48
2019-05-26T00:47:25.114Z,95391.25
2019-05-26T00:49:53.502Z,95390.58
2019-05-26T00:52:46.017Z,95393.39
2019-05-26T00:55:28.155Z,95395.44
2019-05-26T00:57:56.672Z,95391.50
2019-05-26T01:00:41.543Z,95388.71
2019-05-26T01:03:11.924Z,95391.39
2019-05-26T01:05:44.591Z,95386.87
2019-05-26T01:08:19.095Z,95384.70
2019-05-26T01:10:47.507Z,95388.94
2019-05-26T01:13:20.919Z,95386.17
2019-05-26T01:15:50.318Z,95381.50
2019-05-26T01:18:18.731Z,95384.61
2019-05-26T01:20:47.097Z,95383.56
2019-05-26T01:23:19.194Z,95383.81
2019-05-26T01:25:47.573Z,95379.56
2019-05-26T01:28:37.536Z,95385.70
2019-05-26T01:31:05.961Z,95386.61
2019-05-26T01:38:47.770Z,95386.91
2019-05-26T01:41:21.581Z,95388.69
2019-05-26T01:43:49.972Z,95385.59
2019-05-26T01:46:29.165Z,95380.18
2019-05-26T01:48:57.568Z,95379.48
2019-05-26T01:51:29.384Z,95381.95
2019-05-26T01:53:58.647Z,95382.60
2019-05-26T01:56:46.155Z,95378.95
2019-05-26T01:59:20.016Z,95388.92
2019-05-26T02:01:49.368Z,95385.00
2019-05-26T02:04:35.316Z,95382.56
2019-05-26T02:09:40.026Z,95384.47
2019-05-26T02:12:19.578Z,95389.09
2019-05-26T02:14:47.970Z,95390.55
2019-05-26T02:17:16.357Z,95390.25
2019-05-26T02:19:45.656Z,95395.33
2019-05-26T02:22:14.156Z,95391.77
2019-05-26T02:24:42.530Z,95392.23
2019-05-26T02:27:19.700Z,95395.42
2019-05-26T02:32:24.302Z,95390.60
2019-05-26T02:35:05.661Z,95391.53
2019-05-26T02:37:34.074Z,95393.72
2019-05-26T02:40:14.416Z,95385.41
2019-05-26T02:42:42.821Z,95393.90
2019-05-26T02:45:24.519Z,95390.01
2019-05-26T02:48:10.187Z,95387.70
2019-05-26T02:50:38.575Z,95386.55
2019-05-26T02:53:13.202Z,95391.96
2019-05-26T02:55:41.616Z,95390.75
2019-05-26T02:58:23.753Z,95388.14
2019-05-26T03:01:22.985Z,95390.35
2019-05-26T03:03:51.344Z,95387.53
2019-05-26T03:06:26.019Z,95388.55
2019-05-26T03:11:32.572Z,95393.45
2019-05-26T03:14:07.190Z,95391.58
2019-05-26T03:16:35.569Z,95388.89
2019-05-26T03:19:05.919Z,95390.10
2019-05-26T03:21:35.188Z,95390.41
2019-05-26T03:26:43.861Z,95387.49
2019-05-26T03:29:22.345Z,95388.54
2019-05-26T03:31:57.139Z,95387.77
2019-05-26T03:34:25.647Z,95392.27
2019-05-26T03:36:57.686Z,95391.92
2019-05-26T03:39:43.517Z,95398.59
2019-05-26T03:41:58.064Z,95396.09
2019-05-26T03:44:26.434Z,95395.02
2019-05-26T03:46:59.506Z,95398.95
2019-05-26T03:49:27.994Z,95396.25
2019-05-26T03:54:35.714Z,95399.94
2019-05-26T03:57:04.077Z,95404.09
2019-05-26T03:59:32.470Z,95397.80
2019-05-26T04:02:23.995Z,95399.76
2019-05-26T04:05:15.923Z,95401.83
2019-05-26T04:07:46.226Z,95407.80
2019-05-26T04:10:25.039Z,95407.88
2019-05-26T04:12:57.030Z,95409.83
2019-05-26T04:15:25.410Z,95409.81
2019-05-26T04:17:58.702Z,95410.09
2019-05-26T04:20:28.962Z,95410.73
2019-05-26T04:23:09.792Z,95413.14
2019-05-26T04:25:39.059Z,95410.86
2019-05-26T04:28:11.269Z,95418.55
2019-05-26T04:30:39.551Z,95416.41
2019-05-26T04:33:07.957Z,95419.63
2019-05-26T04:35:36.368Z,95418.88
2019-05-26T04:38:10.718Z,95419.67
2019-05-26T04:40:39.052Z,95418.42
2019-05-26T04:43:08.324Z,95420.73
2019-05-26T04:45:43.326Z,95416.23
2019-05-26T04:48:11.742Z,95412.13
2019-05-26T04:50:40.155Z,95409.11
2019-05-26T04:53:08.537Z,95410.45
2019-05-26T04:55:40.716Z,95409.03
2019-05-26T04:58:10.249Z,95406.57
2019-05-26T05:01:03.480Z,95410.98
2019-05-26T05:06:11.114Z,95415.17
2019-05-26T05:08:58.551Z,95414.32
2019-05-26T05:11:30.919Z,95418.67
2019-05-26T05:16:35.546Z,95419.16
2019-05-26T05:19:05.815Z,95423.90
2019-05-26T05:21:53.369Z,95422.92
2019-05-26T05:24:21.743Z,95428.66
2019-05-26T05:26:50.801Z,95426.45
2019-05-26T05:29:19.242Z,95424.89
2019-05-26T05:31:51.583Z,95425.81
2019-05-26T05:34:19.913Z,95424.37
2019-05-26T05:36:56.779Z,95427.59
2019-05-26T05:42:04.408Z,95429.80
2019-05-26T05:44:33.682Z,95431.27
2019-05-26T05:47:03.981Z,95436.27
2019-05-26T05:49:36.873Z,95434.75
2019-05-26T05:52:06.124Z,95432.59
2019-05-26T05:54:34.525Z,95437.73
2019-05-26T05:57:03.852Z,95434.92
2019-05-26T05:59:40.178Z,95435.74
2019-05-26T06:02:08.477Z,95432.28
2019-05-26T06:04:54.457Z,95433.30
2019-05-26T06:07:22.808Z,95438.97
2019-05-26T06:09:57.370Z,95437.51
2019-05-26T06:12:38.910Z,95436.34
2019-05-26T06:15:09.735Z,95440.50
2019-05-26T06:17:42.075Z,95440.70
2019-05-26T06:20:10.453Z,95437.05
2019-05-26T06:25:16.057Z,95432.64
2019-05-26T06:30:35.430Z,95435.39
2019-05-26T06:33:03.807Z,95437.23
2019-05-26T06:35:33.255Z,95431.16
2019-05-26T06:38:04.787Z,95432.47
2019-05-26T06:40:34.053Z,95431.78
2019-05-26T06:43:03.340Z,95430.66
2019-05-26T06:45:35.238Z,95433.67
2019-05-26T06:48:03.656Z,95445.33
2019-05-26T06:50:35.741Z,95441.72
2019-05-26T06:55:43.389Z,95445.75
2019-05-26T06:58:11.773Z,95448.31
2019-05-26T07:00:40.127Z,95447.77
2019-05-26T07:03:11.701Z,95446.41
2019-05-26T07:05:40.727Z,95449.67
2019-05-26T07:08:14.499Z,95452.72
2019-05-26T07:10:42.889Z,95453.53
2019-05-26T07:13:11.266Z,95452.27
2019-05-26T07:15:39.635Z,95453.45
2019-05-26T07:20:44.314Z,95454.12
2019-05-26T07:23:12.817Z,95457.13
2019-05-26T07:25:41.073Z,95460.33
2019-05-26T07:28:12.967Z,95461.73
2019-05-26T07:30:41.349Z,95469.23
2019-05-26T07:33:11.657Z,95467.84
2019-05-26T07:38:16.340Z,95474.03
2019-05-26T07:40:47.194Z,95468.13
2019-05-26T07:43:20.775Z,95472.10
2019-05-26T07:45:49.168Z,95470.91
2019-05-26T07:48:17.539Z,95468.90
2019-05-26T07:50:45.911Z,95467.16
2019-05-26T07:55:50.666Z,95467.74
2019-05-26T07:58:34.048Z,95467.79
2019-05-26T08:01:02.397Z,95463.22
2019-05-26T08:03:30.742Z,95470.12
2019-05-26T08:08:35.469Z,95470.16
2019-05-26T08:11:07.283Z,95471.24
2019-05-26T08:13:35.661Z,95464.48
2019-05-26T08:16:04.020Z,95465.41
2019-05-26T08:18:34.269Z,95466.46
2019-05-26T08:21:19.906Z,95462.26
2019-05-26T08:23:48.253Z,95460.98
2019-05-26T08:26:29.530Z,95457.08
2019-05-26T08:29:11.387Z,95455.12
2019-05-26T08:31:39.746Z,95454.27
2019-05-26T08:34:33.711Z,95453.15
2019-05-26T08:37:02.836Z,95447.70
2019-05-26T08:44:55.890Z,95448.31
2019-05-26T08:53:14.378Z,95440.75
2019-05-26T08:55:42.763Z,95444.28
2019-05-26T08:58:21.883Z,95444.59
2019-05-26T09:00:50.277Z,95444.38
2019-05-26T09:03:33.313Z,95438.06
2019-05-26T09:06:02.594Z,95440.81
2019-05-26T09:11:09.305Z,95438.02
2019-05-26T09:13:41.055Z,95435.48
2019-05-26T09:16:09.444Z,95437.44
2019-05-26T09:18:38.682Z,95434.42
2019-05-26T09:21:07.946Z,95432.20
2019-05-26T09:26:16.516Z,95430.05
2019-05-26T09:28:46.821Z,95436.64
2019-05-26T09:31:15.154Z,95432.28
2019-05-26T09:36:19.784Z,95429.97
2019-05-26T09:38:53.707Z,95428.17
2019-05-26T09:44:02.291Z,95420.37
2019-05-26T09:49:07.902Z,95422.17
2019-05-26T09:51:39.868Z,95418.64
2019-05-26T09:54:08.718Z,95415.38
2019-05-26T09:56:41.503Z,95410.83
2019-05-26T09:59:09.885Z,95410.78
2019-05-26T10:01:39.149Z,95408.58
2019-05-26T10:04:07.517Z,95402.17
2019-05-26T10:09:26.198Z,95406.34
2019-05-26T10:11:55.467Z,95408.02
2019-05-26T10:14:23.809Z,95409.70
2019-05-26T10:16:57.804Z,95407.95
2019-05-26T10:19:31.376Z,95404.84
2019-05-26T10:22:04.061Z,95402.73
2019-05-26T10:24:41.085Z,95398.37
2019-05-26T10:27:09.435Z,95403.05
2019-05-26T10:29:37.800Z,95398.38
2019-05-26T10:32:06.165Z,95394.06
2019-05-26T10:34:41.184Z,95396.83
2019-05-26T10:37:09.536Z,95397.05
2019-05-26T10:39:44.832Z,95391.89
2019-05-26T10:42:09.919Z,95399.17
2019-05-26T10:47:19.831Z,95386.75
2019-05-26T10:49:48.284Z,95390.22
2019-05-26T10:55:12.938Z,95384.42
2019-05-26T10:57:43.315Z,95392.00
2019-05-26T11:00:24.902Z,95393.98
2019-05-26T11:02:53.501Z,95394.30
2019-05-26T11:05:36.181Z,95394.82
2019-05-26T11:08:18.145Z,95391.62
2019-05-26T11:10:46.646Z,95385.73
2019-05-26T11:13:17.002Z,95387.72
2019-05-26T11:15:45.405Z,95388.43
2019-05-26T11:18:13.759Z,95379.32
2019-05-26T11:20:42.138Z,95376.66
2019-05-26T11:23:10.512Z,95373.42
2019-05-26T11:25:44.928Z,95373.38
2019-05-26T11:28:14.403Z,95368.53
2019-05-26T11:30:42.886Z,95371.41
2019-05-26T11:33:11.313Z,95373.63
2019-05-26T11:35:45.965Z,95362.91
2019-05-26T11:38:15.258Z,95367.19
2019-05-26T11:41:01.492Z,95365.77
2019-05-26T11:43:29.833Z,95364.97
2019-05-26T11:46:04.102Z,95360.89
2019-05-26T11:48:39.328Z,95354.81
2019-05-26T11:51:09.799Z,95353.59
2019-05-26T11:53:38.157Z,95352.51
2019-05-26T11:56:11.337Z,95351.13
2019-05-26T11:58:52.753Z,95347.83
2019-05-26T12:01:23.219Z,95343.63
2019-05-26T12:03:57.928Z,95345.45
2019-05-26T12:06:26.317Z,95347.78
2019-05-26T12:09:00.039Z,95347.74
2019-05-26T12:11:30.338Z,95337.50
2019-05-26T12:13:59.682Z,95332.00
2019-05-26T12:16:29.117Z,95331.55
2019-05-26T12:19:01.230Z,95328.98
2019-05-26T12:21:33.108Z,95325.52
2019-05-26T12:24:01.488Z,95320.69
2019-05-26T12:26:57.550Z,95315.00
2019-05-26T12:29:39.291Z,95313.03
2019-05-26T12:32:09.542Z,95310.59
2019-05-26T12:37:17.264Z,95304.10
2019-05-26T12:39:51.704Z,95301.97
2019-05-26T12:45:01.270Z,95294.77
2019-05-26T12:47:30.441Z,95291.93
2019-05-26T12:49:58.798Z,95291.52
2019-05-26T12:52:27.280Z,95291.23
2019-05-26T12:55:02.002Z,95291.34
2019-05-26T12:57:56.729Z,95293.30
2019-05-26T13:00:26.987Z,95296.52
2019-05-26T13:05:39.583Z,95282.02
2019-05-26T13:08:08.052Z,95278.66
2019-05-26T13:10:36.593Z,95273.78
2019-05-26T13:13:05.842Z,95273.39
2019-05-26T13:15:41.412Z,95273.28
2019-05-26T13:18:09.776Z,95272.47
2019-05-26T13:20:43.057Z,95278.64
2019-05-26T13:23:12.340Z,95271.23
2019-05-26T13:25:42.299Z,95268.99
2019-05-26T13:28:12.581Z,95269.38
2019-05-26T13:30:44.197Z,95267.17
2019-05-26T13:33:12.531Z,95265.41
2019-05-26T13:35:55.925Z,95264.31
2019-05-26T13:38:24.374Z,95261.94
2019-05-26T13:41:00.754Z,95261.38
2019-05-26T13:43:55.140Z,95256.20
2019-05-26T13:46:25.412Z,95258.46
2019-05-26T13:49:00.325Z,95249.08
2019-05-26T13:51:32.370Z,95246.05
2019-05-26T13:54:00.799Z,95245.20
2019-05-26T13:56:32.860Z,95243.20
2019-05-26T13:59:01.250Z,95247.78
2019-05-26T14:04:06.041Z,95246.24
2019-05-26T14:06:39.028Z,95242.60
2019-05-26T14:09:07.406Z,95236.42
2019-05-26T14:11:36.496Z,95240.59
2019-05-26T14:14:04.858Z,95242.81
2019-05-26T14:19:25.691Z,95234.00
2019-05-26T14:21:58.587Z,95234.86
2019-05-26T14:24:28.147Z,95231.31
2019-05-26T14:26:56.546Z,95235.79
2019-05-26T14:29:29.032Z,95237.08
2019-05-26T14:31:59.460Z,95238.19
2019-05-26T14:34:36.038Z,95237.50
2019-05-26T14:37:06.386Z,95236.32
2019-05-26T14:39:36.694Z,95238.66
2019-05-26T14:42:10.858Z,95242.96
2019-05-26T14:44:40.157Z,95234.38
2019-05-26T14:47:23.724Z,95234.48
2019-05-26T14:49:52.056Z,95230.63
2019-05-26T14:52:27.212Z,95236.33
2019-05-26T14:57:41.894Z,95231.98
2019-05-26T15:02:50.571Z,95230.17
2019-05-26T15:05:24.130Z,95229.35
2019-05-26T15:07:54.469Z,95227.02
2019-05-26T15:10:23.738Z,95226.27
2019-05-26T15:12:57.600Z,95226.83
2019-05-26T15:15:25.995Z,95222.19
2019-05-26T15:17:54.974Z,95225.00
2019-05-26T15:20:23.347Z,95219.59
2019-05-26T15:22:51.768Z,95223.98
2019-05-26T15:25:23.712Z,95221.33
2019-05-26T15:27:57.481Z,95218.81
2019-05-26T15:30:26.636Z,95215.52
2019-05-26T15:33:05.605Z,95216.95
2019-05-26T15:35:34.037Z,95215.44
2019-05-26T15:40:38.740Z,95216.74
2019-05-26T15:43:07.108Z,95212.09
2019-05-26T15:45:35.478Z,95211.00
2019-05-26T15:48:05.778Z,95215.07
2019-05-26T15:50:36.324Z,95213.56
2019-05-26T15:53:10.523Z,95211.85
2019-05-26T15:55:40.858Z,95208.11
2019-05-26T15:58:09.932Z,95203.94
2019-05-26T16:00:39.126Z,95205.16
2019-05-26T16:03:09.389Z,95205.50
2019-05-26T16:05:37.742Z,95207.04
2019-05-26T16:10:58.309Z,95199.81
2019-05-26T16:13:26.679Z,95197.13
2019-05-26T16:15:55.101Z,95200.38
2019-05-26T16:18:25.363Z,95196.63
2019-05-26T16:21:03.145Z,95194.24
2019-05-26T16:23:26.083Z,95194.94
2019-05-26T16:25:55.436Z,95196.62
2019-05-26T16:28:24.682Z,95197.44
2019-05-26T16:30:57.783Z,95192.64
2019-05-26T16:33:27.040Z,95188.44
2019-05-26T16:36:01.458Z,95187.95
2019-05-26T16:38:29.856Z,95186.63
2019-05-26T16:41:02.491Z,95183.69
2019-05-26T16:43:33.844Z,95179.00
2019-05-26T16:46:02.176Z,95181.80
2019-05-26T16:53:48.303Z,95173.14
2019-05-26T16:56:16.673Z,95171.59
2019-05-26T16:58:45.378Z,95171.84
2019-05-26T17:01:13.767Z,95169.80
2019-05-26T17:03:42.154Z,95164.91
2019-05-26T17:06:17.159Z,95165.48
2019-05-26T17:08:45.581Z,95168.37
2019-05-26T17:11:17.242Z,95165.29
2019-05-26T17:13:47.967Z,95164.09
2019-05-26T17:16:26.487Z,95162.06
2019-05-26T17:19:01.413Z,95159.89
2019-05-26T17:21:30.659Z,95157.70
2019-05-26T17:24:04.362Z,95157.39
2019-05-26T17:26:32.712Z,95156.22
2019-05-26T17:29:04.930Z,95151.52
2019-05-26T17:31:34.123Z,95149.34
2019-05-26T17:34:02.526Z,95149.75
2019-05-26T17:36:30.894Z,95146.83
2019-05-26T17:38:59.262Z,95142.66
2019-05-26T17:41:28.858Z,95141.81
2019-05-26T17:44:17.965Z,95141.88
2019-05-26T17:46:53.446Z,95139.48
2019-05-26T17:51:58.115Z,95140.14
2019-05-26T17:54:27.405Z,95144.66
2019-05-26T17:57:06.197Z,95144.37
2019-05-26T17:59:35.477Z,95142.98
2019-05-26T18:02:03.820Z,95144.01
2019-05-26T18:04:32.189Z,95146.61
2019-05-26T18:09:44.089Z,95143.26
2019-05-26T18:12:05.209Z,95144.59
2019-05-26T18:14:33.615Z,95140.72
2019-05-26T18:17:06.845Z,95140.28
2019-05-26T18:19:36.025Z,95142.84
2019-05-26T18:24:54.982Z,95134.83
2019-05-26T18:27:15.439Z,95137.05
2019-05-26T18:29:44.806Z,95134.27
2019-05-26T18:32:13.293Z,95134.86
2019-05-26T18:34:41.645Z,95134.12
2019-05-26T18:37:09.991Z,95133.14
2019-05-26T18:39:41.950Z,95132.82
2019-05-26T18:42:10.296Z,95135.30
2019-05-26T18:45:00.307Z,95135.97
2019-05-26T18:50:54.627Z,95136.17
2019-05-26T18:53:34.849Z,95133.52
2019-05-26T18:56:03.268Z,95130.63
2019-05-26T18:58:33.574Z,95137.71
2019-05-26T19:01:02.729Z,95138.03
2019-05-26T19:03:50.228Z,95139.29
2019-05-26T19:06:18.592Z,95139.48
2019-05-26T19:11:59.600Z,95144.08
2019-05-26T19:20:42.378Z,95150.86
2019-05-26T19:23:11.282Z,95154.09
2019-05-26T19:25:40.581Z,95156.94
2019-05-26T19:28:08.984Z,95153.69
2019-05-26T19:30:39.317Z,95156.75
2019-05-26T19:33:07.694Z,95155.88
2019-05-26T19:41:23.807Z,95150.69
2019-05-26T19:49:07.676Z,95151.93
2019-05-26T19:51:38.423Z,95157.66
2019-05-26T19:54:06.784Z,95155.94
2019-05-26T19:56:35.128Z,95149.81
2019-05-26T19:59:03.552Z,95151.45
2019-05-26T20:04:11.114Z,95152.98
2019-05-26T20:06:59.179Z,95152.51
2019-05-26T20:09:27.588Z,95146.68
2019-05-26T20:11:58.111Z,95142.16
2019-05-26T20:14:37.187Z,95140.16
2019-05-26T20:17:05.565Z,95138.75
2019-05-26T20:19:35.857Z,95137.59
2019-05-26T20:22:04.206Z,95137.70
2019-05-26T20:24:33.482Z,95140.28
2019-05-26T20:27:01.847Z,95143.42
2019-05-26T20:29:30.236Z,95143.22
2019-05-26T20:31:58.669Z,95143.66
2019-05-26T20:34:27.042Z,95141.77
2019-05-26T20:36:56.327Z,95143.13
2019-05-26T20:39:28.365Z,95138.13
2019-05-26T20:42:00.083Z,95139.23
2019-05-26T20:44:28.426Z,95138.66
2019-05-26T20:47:27.194Z,95140.19
2019-05-26T20:49:55.670Z,95141.48
2019-05-26T20:55:27.218Z,95140.88
2019-05-26T21:00:35.908Z,95146.01
2019-05-26T21:05:40.547Z,95149.56
2019-05-26T21:08:13.371Z,95152.62
2019-05-26T21:10:41.794Z,95149.12
2019-05-26T21:13:16.044Z,95147.96
2019-05-26T21:15:47.616Z,95147.05
2019-05-26T21:18:17.946Z,95148.20
2019-05-26T21:23:27.587Z,95148.59
2019-05-26T21:25:55.910Z,95147.05
2019-05-26T21:28:25.262Z,95148.47
2019-05-26T21:31:10.481Z,95150.11
2019-05-26T21:33:38.870Z,95149.88
2019-05-26T21:38:43.570Z,95146.39
2019-05-26T21:41:14.746Z,95150.19
2019-05-26T21:43:43.303Z,95148.82
2019-05-26T21:46:15.080Z,95151.64
2019-05-26T21:48:43.463Z,95148.66
2019-05-26T21:54:08.314Z,95136.33
2019-05-26T21:56:36.649Z,95135.84
2019-05-26T22:01:41.272Z,95138.59
2019-05-26T22:04:09.617Z,95142.17
2019-05-26T22:06:37.980Z,95136.52
2019-05-26T22:09:06.336Z,95133.95
2019-05-26T22:11:36.675Z,95136.65
2019-05-26T22:14:05.087Z,95136.23
2019-05-26T22:19:05.253Z,95133.50
2019-05-26T22:21:35.546Z,95136.62
2019-05-26T22:24:04.981Z,95137.91
2019-05-26T22:26:33.269Z,95132.58
2019-05-26T22:29:01.639Z,95129.94
2019-05-26T22:34:10.264Z,95125.07
2019-05-26T22:36:39.559Z,95125.59
2019-05-26T22:39:07.966Z,95127.45
2019-05-26T22:41:54.536Z,95121.16
2019-05-26T22:44:28.632Z,95118.36
2019-05-26T22:46:57.185Z,95115.31
2019-05-26T22:49:25.549Z,95112.94
2019-05-26T22:52:07.638Z,95105.55
2019-05-26T22:54:53.451Z,95104.98
2019-05-26T22:57:21.849Z,95103.36
2019-05-26T23:00:05.665Z,95104.75
2019-05-26T23:02:51.912Z,95097.19
2019-05-26T23:05:20.304Z,95095.00
2019-05-26T23:08:05.465Z,95090.07
2019-05-26T23:13:10.054Z,95093.78
2019-05-26T23:15:39.445Z,95094.06
2019-05-26T23:18:08.717Z,95091.17
2019-05-26T23:23:18.269Z,95090.98
2019-05-26T23:28:27.747Z,95084.67
2019-05-26T23:30:58.097Z,95085.30
2019-05-26T23:33:35.051Z,95084.13
2019-05-26T23:36:03.405Z,95088.43
2019-05-26T23:38:54.001Z,95085.56
2019-05-26T23:41:37.214Z,95082.08
2019-05-26T23:44:05.573Z,95081.29
2019-05-26T23:46:54.019Z,95078.50
2019-05-26T23:49:32.567Z,95077.91
2019-05-26T23:52:00.910Z,95071.47
2019-05-26T23:57:07.514Z,95069.08
2019-05-26T23:59:54.577Z,95067.06
